createdAt,value
2022-09-27T00:01:53.801Z,11.50
2022-09-27T00:04:40.226Z,11.50
2022-09-27T00:07:26.233Z,11.50
2022-09-27T00:10:13.122Z,11.50
2022-09-27T00:12:59.599Z,11.40
2022-09-27T00:15:46.034Z,11.40
2022-09-27T00:18:33.009Z,11.40
2022-09-27T00:21:19.464Z,11.40
2022-09-27T00:24:05.724Z,11.40
2022-09-27T00:26:52.015Z,11.50
2022-09-27T00:29:38.411Z,11.50
2022-09-27T00:32:24.779Z,11.40
2022-09-27T00:35:11.069Z,11.30
2022-09-27T00:37:57.153Z,11.20
2022-09-27T00:40:43.535Z,11.10
2022-09-27T00:43:51.242Z,11.00
2022-09-27T00:46:37.444Z,10.90
2022-09-27T00:49:45.634Z,10.70
2022-09-27T00:52:45.330Z,10.60
2022-09-27T00:55:38.994Z,10.50
2022-09-27T00:58:30.821Z,10.50
2022-09-27T01:01:18.070Z,10.40
2022-09-27T01:04:09.128Z,10.40
2022-09-27T01:06:55.550Z,10.30
2022-09-27T01:09:42.135Z,10.30
2022-09-27T01:12:52.738Z,10.30
2022-09-27T01:15:59.964Z,10.30
2022-09-27T01:18:52.015Z,10.30
2022-09-27T01:21:51.958Z,10.30
2022-09-27T01:24:59.122Z,10.20
2022-09-27T01:28:10.077Z,10.20
2022-09-27T01:31:12.523Z,10.20
2022-09-27T01:34:19.954Z,10.20
2022-09-27T01:37:17.877Z,10.20
2022-09-27T01:40:29.925Z,10.20
2022-09-27T01:43:47.950Z,10.20
2022-09-27T01:46:45.954Z,10.10
2022-09-27T01:50:03.548Z,10.10
2022-09-27T01:53:12.482Z,10.10
2022-09-27T01:56:19.356Z,10.10
2022-09-27T01:59:19.915Z,10.00
2022-09-27T02:02:16.690Z,10.00
2022-09-27T02:05:33.041Z,10.00
2022-09-27T02:08:49.427Z,9.90
2022-09-27T02:11:56.473Z,9.90
2022-09-27T02:14:54.611Z,9.90
2022-09-27T02:18:00.642Z,9.90
2022-09-27T02:20:56.874Z,9.90
2022-09-27T02:23:47.665Z,9.90
2022-09-27T02:26:44.079Z,9.80
2022-09-27T02:29:39.754Z,9.80
2022-09-27T02:32:27.163Z,9.70
2022-09-27T02:35:15.578Z,9.70
2022-09-27T02:38:03.916Z,9.60
2022-09-27T02:40:50.199Z,9.60
2022-09-27T02:43:36.759Z,9.50
2022-09-27T02:46:36.975Z,9.50
2022-09-27T02:50:01.347Z,9.50
2022-09-27T02:53:17.941Z,9.40
2022-09-27T02:56:24.158Z,9.40
2022-09-27T02:59:40.064Z,9.30
2022-09-27T03:02:46.606Z,9.30
2022-09-27T03:06:11.633Z,9.30
2022-09-27T03:08:57.998Z,9.30
2022-09-27T03:11:44.263Z,9.30
2022-09-27T03:14:30.237Z,9.30
2022-09-27T03:17:28.026Z,9.30
2022-09-27T03:20:34.666Z,9.30
2022-09-27T03:23:27.747Z,9.30
2022-09-27T03:26:14.557Z,9.30
2022-09-27T03:29:00.559Z,9.30
2022-09-27T03:31:47.699Z,9.30
2022-09-27T03:35:06.543Z,9.20
2022-09-27T03:37:53.088Z,9.30
2022-09-27T03:40:39.124Z,9.20
2022-09-27T03:43:26.511Z,9.20
2022-09-27T03:46:17.548Z,9.20
2022-09-27T03:49:04.174Z,9.20
2022-09-27T03:51:50.577Z,9.30
2022-09-27T03:54:36.697Z,9.30
2022-09-27T03:57:22.713Z,9.30
2022-09-27T04:00:09.706Z,9.30
2022-09-27T04:03:00.086Z,9.30
2022-09-27T04:05:46.394Z,9.30
2022-09-27T04:08:37.849Z,9.20
2022-09-27T04:11:25.821Z,9.20
2022-09-27T04:14:13.139Z,9.30
2022-09-27T04:17:19.206Z,9.30
2022-09-27T04:20:29.696Z,9.40
2022-09-27T04:23:17.149Z,9.40
2022-09-27T04:26:10.167Z,9.40
2022-09-27T04:29:12.264Z,9.40
2022-09-27T04:32:04.990Z,9.40
2022-09-27T04:35:31.409Z,9.40
2022-09-27T04:38:20.335Z,9.40
2022-09-27T04:41:07.406Z,9.40
2022-09-27T04:43:59.422Z,9.40
2022-09-27T04:46:46.170Z,9.40
2022-09-27T04:49:32.751Z,9.40
2022-09-27T04:52:19.076Z,9.40
2022-09-27T04:55:06.582Z,9.40
2022-09-27T04:57:53.849Z,9.50
2022-09-27T05:00:42.884Z,9.50
2022-09-27T05:04:04.346Z,9.50
2022-09-27T05:06:57.193Z,9.50
2022-09-27T05:09:55.746Z,9.60
2022-09-27T05:12:42.290Z,9.60
2022-09-27T05:15:31.554Z,9.60
2022-09-27T05:18:40.770Z,9.60
2022-09-27T05:21:53.277Z,9.60
2022-09-27T05:24:40.000Z,9.60
2022-09-27T05:27:26.225Z,9.60
2022-09-27T05:30:12.562Z,9.60
2022-09-27T05:33:06.588Z,9.60
2022-09-27T05:36:09.201Z,9.60
2022-09-27T05:38:55.683Z,9.60
2022-09-27T05:41:44.106Z,9.60
2022-09-27T05:44:30.771Z,9.60
2022-09-27T05:47:19.370Z,9.60
2022-09-27T05:50:09.771Z,9.60
2022-09-27T05:52:56.186Z,9.60
2022-09-27T05:55:43.332Z,9.60
2022-09-27T05:58:30.801Z,9.60
2022-09-27T06:01:35.797Z,9.60
2022-09-27T06:04:45.014Z,9.60
2022-09-27T06:08:06.166Z,9.60
2022-09-27T06:11:04.346Z,9.60
2022-09-27T06:13:51.142Z,9.60
2022-09-27T06:16:37.324Z,9.60
2022-09-27T06:19:23.789Z,9.60
2022-09-27T06:22:10.396Z,9.60
2022-09-27T06:25:05.290Z,9.70
2022-09-27T06:27:55.700Z,9.70
2022-09-27T06:30:47.838Z,9.70
2022-09-27T06:33:49.129Z,9.70
2022-09-27T06:36:35.888Z,9.70
2022-09-27T06:39:22.124Z,9.70
2022-09-27T06:42:20.847Z,9.60
2022-09-27T06:45:13.783Z,9.70
2022-09-27T06:48:20.338Z,9.70
2022-09-27T06:51:30.618Z,9.80
2022-09-27T06:54:16.719Z,9.80
2022-09-27T06:57:03.118Z,9.80
2022-09-27T07:00:08.131Z,9.90
2022-09-27T07:03:38.870Z,10.00
2022-09-27T07:06:59.171Z,10.10
2022-09-27T07:09:50.108Z,10.20
2022-09-27T07:12:37.619Z,10.30
2022-09-27T07:15:24.435Z,10.30
2022-09-27T07:18:10.410Z,10.50
2022-09-27T07:21:00.510Z,10.60
2022-09-27T07:23:47.176Z,10.60
2022-09-27T07:26:34.370Z,10.70
2022-09-27T07:29:23.855Z,10.70
2022-09-27T07:32:12.502Z,10.60
2022-09-27T07:34:59.042Z,10.70
2022-09-27T07:37:45.412Z,10.70
2022-09-27T07:40:33.570Z,10.70
2022-09-27T07:43:20.748Z,10.70
2022-09-27T07:46:08.229Z,10.60
2022-09-27T07:49:14.322Z,10.40
2022-09-27T07:52:21.059Z,10.40
2022-09-27T07:55:15.118Z,10.40
2022-09-27T07:58:21.777Z,10.50
2022-09-27T08:01:10.287Z,10.70
2022-09-27T08:03:58.601Z,10.90
2022-09-27T08:06:45.614Z,11.00
2022-09-27T08:09:31.983Z,10.80
2022-09-27T08:12:18.223Z,10.30
2022-09-27T08:15:05.198Z,9.60
2022-09-27T08:17:52.010Z,9.20
2022-09-27T08:20:48.961Z,8.90
2022-09-27T08:23:46.904Z,8.60
2022-09-27T08:26:47.794Z,8.50
2022-09-27T08:29:44.411Z,8.40
2022-09-27T08:32:30.854Z,8.60
2022-09-27T08:35:20.330Z,8.70
2022-09-27T08:38:06.692Z,8.80
2022-09-27T08:41:14.616Z,8.90
2022-09-27T08:44:13.599Z,9.00
2022-09-27T08:47:17.747Z,9.00
2022-09-27T08:50:30.570Z,9.00
2022-09-27T08:53:32.992Z,9.20
2022-09-27T08:56:23.274Z,9.40
2022-09-27T08:59:21.112Z,9.50
2022-09-27T09:02:21.904Z,9.60
2022-09-27T09:05:21.484Z,9.90
2022-09-27T09:08:41.280Z,9.90
2022-09-27T09:12:05.854Z,9.90
2022-09-27T09:15:03.241Z,10.00
2022-09-27T09:17:52.886Z,10.10
2022-09-27T09:21:17.050Z,10.20
2022-09-27T09:24:15.994Z,10.40
2022-09-27T09:27:30.604Z,10.60
2022-09-27T09:30:39.328Z,10.70
2022-09-27T09:33:41.621Z,10.70
2022-09-27T09:36:44.456Z,10.60
2022-09-27T09:39:48.924Z,10.60
2022-09-27T09:42:47.144Z,10.60
2022-09-27T09:45:55.792Z,10.60
2022-09-27T09:49:13.849Z,10.50
2022-09-27T09:52:12.998Z,10.40
2022-09-27T09:55:07.498Z,10.30
2022-09-27T09:58:05.839Z,10.30
2022-09-27T10:01:17.513Z,10.30
2022-09-27T10:04:04.494Z,10.40
2022-09-27T10:06:52.644Z,10.40
2022-09-27T10:09:40.415Z,10.50
2022-09-27T10:12:56.926Z,10.50
2022-09-27T10:16:11.031Z,10.60
2022-09-27T10:19:02.851Z,10.80
2022-09-27T10:21:51.063Z,10.90
2022-09-27T10:24:56.228Z,11.00
2022-09-27T10:28:02.457Z,11.00
2022-09-27T10:30:57.221Z,11.00
2022-09-27T10:34:05.338Z,11.10
2022-09-27T10:37:09.227Z,11.20
2022-09-27T10:39:59.744Z,11.30
2022-09-27T10:42:46.434Z,11.20
2022-09-27T10:45:33.631Z,11.10
2022-09-27T10:48:28.022Z,11.10
2022-09-27T10:51:29.810Z,11.10
2022-09-27T10:54:27.794Z,11.10
2022-09-27T10:57:14.567Z,11.10
2022-09-27T11:00:21.088Z,11.10
2022-09-27T11:03:16.960Z,11.20
2022-09-27T11:06:20.233Z,11.40
2022-09-27T11:09:18.872Z,11.50
2022-09-27T11:12:13.146Z,11.50
2022-09-27T11:15:07.490Z,11.40
2022-09-27T11:18:11.962Z,11.30
2022-09-27T11:21:36.102Z,11.20
2022-09-27T11:24:54.113Z,10.80
2022-09-27T11:27:48.311Z,10.40
2022-09-27T11:30:56.222Z,10.20
2022-09-27T11:34:24.235Z,10.00
2022-09-27T11:37:30.625Z,9.90
2022-09-27T11:40:35.235Z,9.80
2022-09-27T11:43:42.676Z,9.90
2022-09-27T11:46:41.578Z,10.20
2022-09-27T11:49:51.358Z,10.30
2022-09-27T11:52:45.919Z,10.40
2022-09-27T11:55:47.790Z,10.50
2022-09-27T11:58:51.120Z,10.30
2022-09-27T12:02:01.118Z,10.20
2022-09-27T12:05:23.943Z,10.10
2022-09-27T12:08:24.034Z,10.00
2022-09-27T12:11:30.468Z,9.80
2022-09-27T12:14:29.735Z,9.10
2022-09-27T12:17:21.837Z,8.70
2022-09-27T12:20:26.000Z,8.50
2022-09-27T12:23:19.057Z,8.50
2022-09-27T12:26:21.231Z,8.60
2022-09-27T12:29:14.560Z,8.90
2022-09-27T12:32:19.761Z,9.10
2022-09-27T12:35:11.667Z,9.30
2022-09-27T12:38:03.156Z,9.50
2022-09-27T12:40:53.592Z,9.70
2022-09-27T12:43:50.876Z,9.80
2022-09-27T12:47:10.694Z,9.90
2022-09-27T12:50:22.109Z,10.00
2022-09-27T12:53:22.822Z,10.30
2022-09-27T12:56:17.191Z,10.40
2022-09-27T12:59:12.191Z,10.30
2022-09-27T13:01:58.778Z,10.20
2022-09-27T13:05:19.129Z,10.40
2022-09-27T13:08:54.170Z,10.60
2022-09-27T13:11:55.324Z,10.90
2022-09-27T13:15:20.874Z,11.00
2022-09-27T13:18:27.923Z,11.40
2022-09-27T13:21:49.167Z,11.80
2022-09-27T13:24:47.403Z,12.10
2022-09-27T13:28:00.089Z,12.30
2022-09-27T13:30:52.621Z,12.60
2022-09-27T13:33:52.393Z,12.70
2022-09-27T13:36:43.341Z,12.50
2022-09-27T13:39:31.017Z,12.20
2022-09-27T13:43:28.240Z,12.10
2022-09-27T13:46:23.006Z,11.80
2022-09-27T13:49:23.465Z,11.70
2022-09-27T13:52:37.335Z,12.00
2022-09-27T13:55:47.849Z,12.20
2022-09-27T13:59:02.763Z,12.30
2022-09-27T14:02:27.431Z,12.40
2022-09-27T14:05:21.680Z,12.10
2022-09-27T14:08:26.929Z,11.70
2022-09-27T14:11:18.569Z,11.40
2022-09-27T14:14:06.283Z,11.20
2022-09-27T14:17:01.167Z,11.20
2022-09-27T14:19:49.322Z,11.10
2022-09-27T14:22:36.139Z,11.10
2022-09-27T14:25:23.046Z,11.10
2022-09-27T14:28:25.903Z,11.10
2022-09-27T14:31:34.833Z,11.10
2022-09-27T14:34:33.990Z,11.10
2022-09-27T14:37:25.981Z,11.10
2022-09-27T14:40:21.485Z,11.10
2022-09-27T14:43:17.291Z,10.90
2022-09-27T14:46:08.516Z,10.70
2022-09-27T14:48:55.916Z,10.60
2022-09-27T14:51:42.013Z,10.60
2022-09-27T14:54:30.602Z,10.50
2022-09-27T14:57:17.800Z,10.50
2022-09-27T15:00:17.116Z,10.50
2022-09-27T15:03:08.917Z,10.60
2022-09-27T15:05:55.533Z,10.60
2022-09-27T15:08:44.767Z,10.60
2022-09-27T15:11:33.392Z,10.60
2022-09-27T15:14:20.814Z,10.60
2022-09-27T15:17:14.348Z,10.70
2022-09-27T15:20:04.214Z,10.70
2022-09-27T15:22:50.899Z,10.70
2022-09-27T15:25:44.280Z,10.70
2022-09-27T15:28:30.357Z,10.60
2022-09-27T15:31:16.814Z,10.60
2022-09-27T15:34:06.735Z,10.60
2022-09-27T15:37:00.322Z,10.50
2022-09-27T15:39:46.509Z,10.50
2022-09-27T15:42:57.544Z,10.50
2022-09-27T15:45:50.792Z,10.50
2022-09-27T15:48:37.741Z,10.50
2022-09-27T15:51:42.099Z,10.40
2022-09-27T15:54:34.672Z,10.40
2022-09-27T15:57:20.994Z,10.40
2022-09-27T16:00:12.158Z,10.50
2022-09-27T16:02:58.500Z,10.40
2022-09-27T16:05:44.631Z,10.20
2022-09-27T16:08:30.999Z,9.90
2022-09-27T16:11:17.807Z,9.70
2022-09-27T16:14:04.181Z,9.50
2022-09-27T16:16:53.126Z,9.30
2022-09-27T16:19:39.427Z,9.20
2022-09-27T16:22:25.530Z,9.20
2022-09-27T16:25:12.447Z,9.20
2022-09-27T16:28:03.303Z,9.20
2022-09-27T16:30:49.917Z,9.10
2022-09-27T16:33:36.864Z,9.20
2022-09-27T16:36:23.116Z,9.20
2022-09-27T16:39:15.348Z,9.20
2022-09-27T16:42:05.850Z,9.10
2022-09-27T16:44:54.017Z,9.10
2022-09-27T16:47:40.319Z,9.10
2022-09-27T16:50:45.797Z,9.10
2022-09-27T16:53:32.168Z,9.10
2022-09-27T16:56:19.336Z,9.10
2022-09-27T16:59:06.607Z,8.90
2022-09-27T17:01:57.260Z,8.80
2022-09-27T17:04:43.898Z,8.80
2022-09-27T17:07:29.872Z,8.60
2022-09-27T17:10:17.201Z,8.60
2022-09-27T17:13:03.636Z,8.60
2022-09-27T17:15:49.865Z,8.50
2022-09-27T17:18:36.057Z,8.50
2022-09-27T17:21:22.081Z,8.50
2022-09-27T17:24:08.678Z,8.50
2022-09-27T17:26:55.466Z,8.50
2022-09-27T17:29:44.005Z,8.40
2022-09-27T17:32:30.451Z,8.50
2022-09-27T17:35:16.546Z,8.50
2022-09-27T17:38:02.626Z,8.50
2022-09-27T17:40:48.638Z,8.60
2022-09-27T17:43:37.646Z,8.70
2022-09-27T17:46:29.934Z,8.80
2022-09-27T17:49:35.009Z,8.80
2022-09-27T17:52:20.859Z,8.80
2022-09-27T17:55:07.188Z,8.90
2022-09-27T17:57:53.755Z,8.90
2022-09-27T18:00:39.982Z,8.90
2022-09-27T18:03:25.891Z,8.90
2022-09-27T18:06:14.105Z,8.90
2022-09-27T18:08:59.938Z,8.90
2022-09-27T18:11:45.913Z,8.80
2022-09-27T18:14:32.901Z,8.60
2022-09-27T18:17:18.892Z,8.60
2022-09-27T18:20:05.733Z,8.50
2022-09-27T18:22:53.272Z,8.40
2022-09-27T18:25:41.049Z,8.40
2022-09-27T18:28:31.770Z,8.40
2022-09-27T18:31:20.341Z,8.30
2022-09-27T18:34:07.111Z,8.30
2022-09-27T18:36:53.227Z,8.30
2022-09-27T18:39:40.242Z,8.30
2022-09-27T18:42:26.276Z,8.20
2022-09-27T18:45:12.202Z,8.20
2022-09-27T18:47:58.094Z,8.20
2022-09-27T18:50:45.060Z,8.10
2022-09-27T18:53:34.816Z,8.20
2022-09-27T18:56:20.990Z,8.20
2022-09-27T18:59:09.234Z,8.20
2022-09-27T19:01:55.524Z,8.20
2022-09-27T19:04:41.365Z,8.20
2022-09-27T19:07:27.459Z,8.20
2022-09-27T19:10:13.460Z,8.20
2022-09-27T19:13:01.069Z,8.20
2022-09-27T19:15:58.378Z,8.20
2022-09-27T19:18:44.379Z,8.30
2022-09-27T19:21:30.741Z,8.30
2022-09-27T19:24:18.783Z,8.30
2022-09-27T19:27:04.660Z,8.30
2022-09-27T19:29:50.809Z,8.30
2022-09-27T19:32:37.009Z,8.30
2022-09-27T19:35:22.945Z,8.30
2022-09-27T19:38:09.113Z,8.30
2022-09-27T19:40:55.300Z,8.30
2022-09-27T19:43:43.807Z,8.30
2022-09-27T19:46:30.045Z,8.30
2022-09-27T19:49:18.775Z,8.30
2022-09-27T19:52:05.193Z,8.30
2022-09-27T19:54:51.273Z,8.30
2022-09-27T19:57:37.282Z,8.30
2022-09-27T20:00:23.099Z,8.30
2022-09-27T20:03:09.275Z,8.30
2022-09-27T20:05:56.760Z,8.30
2022-09-27T20:08:43.926Z,8.30
2022-09-27T20:11:31.302Z,8.30
2022-09-27T20:14:17.808Z,8.30
2022-09-27T20:17:03.989Z,8.30
2022-09-27T20:19:50.053Z,8.30
2022-09-27T20:22:35.878Z,8.30
2022-09-27T20:25:23.086Z,8.30
2022-09-27T20:28:09.532Z,8.30
2022-09-27T20:30:57.726Z,8.20
2022-09-27T20:33:45.876Z,8.30
2022-09-27T20:36:37.965Z,8.20
2022-09-27T20:39:24.320Z,8.20
2022-09-27T20:42:10.848Z,8.20
2022-09-27T20:44:57.524Z,8.20
2022-09-27T20:47:43.622Z,8.20
2022-09-27T20:50:29.818Z,8.20
2022-09-27T20:53:15.823Z,8.30
2022-09-27T20:56:05.502Z,8.30
2022-09-27T20:58:54.619Z,8.30
2022-09-27T21:01:45.919Z,8.30
2022-09-27T21:04:32.130Z,8.30
2022-09-27T21:07:18.030Z,8.30
2022-09-27T21:10:04.363Z,8.30
2022-09-27T21:12:50.324Z,8.30
2022-09-27T21:15:36.324Z,8.20
2022-09-27T21:18:22.338Z,8.20
2022-09-27T21:21:10.300Z,8.20
2022-09-27T21:23:59.663Z,8.20
2022-09-27T21:26:45.652Z,8.20
2022-09-27T21:29:31.489Z,8.20
2022-09-27T21:32:17.422Z,8.20
2022-09-27T21:35:03.629Z,8.20
2022-09-27T21:37:50.238Z,8.30
2022-09-27T21:40:36.509Z,8.40
2022-09-27T21:43:26.254Z,8.50
2022-09-27T21:46:14.199Z,8.50
2022-09-27T21:49:04.554Z,8.60
2022-09-27T21:51:50.733Z,8.60
2022-09-27T21:54:36.777Z,8.60
2022-09-27T21:57:22.787Z,8.50
2022-09-27T22:00:09.739Z,8.30
2022-09-27T22:02:58.933Z,8.20
2022-09-27T22:05:49.548Z,8.20
2022-09-27T22:08:35.540Z,8.10
2022-09-27T22:11:29.821Z,8.10
2022-09-27T22:14:17.814Z,8.10
2022-09-27T22:17:03.950Z,8.00
2022-09-27T22:19:49.808Z,8.00
2022-09-27T22:22:35.931Z,8.00
2022-09-27T22:25:23.373Z,8.00
2022-09-27T22:28:09.486Z,8.00
2022-09-27T22:30:55.559Z,8.00
2022-09-27T22:33:42.718Z,8.00
2022-09-27T22:36:29.933Z,7.90
2022-09-27T22:39:16.330Z,7.90
2022-09-27T22:42:02.584Z,7.80
2022-09-27T22:44:48.530Z,7.70
2022-09-27T22:47:34.490Z,7.70
2022-09-27T22:50:20.553Z,7.60
2022-09-27T22:53:07.671Z,7.60
2022-09-27T22:56:04.087Z,7.60
2022-09-27T22:58:51.253Z,7.50
2022-09-27T23:01:37.299Z,7.50
2022-09-27T23:04:23.745Z,7.50
2022-09-27T23:07:09.675Z,7.40
2022-09-27T23:09:55.701Z,7.50
2022-09-27T23:12:41.708Z,7.50
2022-09-27T23:15:27.856Z,7.60
2022-09-27T23:18:14.102Z,7.60
2022-09-27T23:21:03.516Z,7.50
2022-09-27T23:23:49.643Z,7.50
2022-09-27T23:26:35.728Z,7.40
2022-09-27T23:29:21.809Z,7.40
2022-09-27T23:32:07.814Z,7.40
2022-09-27T23:34:53.956Z,7.40
2022-09-27T23:37:41.078Z,7.30
2022-09-27T23:40:27.526Z,7.40
2022-09-27T23:43:13.712Z,7.40
2022-09-27T23:46:00.059Z,7.50
2022-09-27T23:48:46.129Z,7.50
2022-09-27T23:51:32.356Z,7.50
2022-09-27T23:54:18.306Z,7.50
2022-09-27T23:57:04.649Z,7.50
2022-09-27T23:59:50.893Z,7.60
